createdAt,value
2022-11-26T00:02:26.002Z,84.83
2022-11-26T00:06:34.940Z,85.11
2022-11-26T00:10:39.499Z,85.16
2022-11-26T00:14:42.490Z,85.27
2022-11-26T00:18:45.518Z,85.35
2022-11-26T00:22:52.616Z,85.45
2022-11-26T00:26:59.943Z,85.60
2022-11-26T00:31:05.753Z,85.58
2022-11-26T00:35:09.458Z,85.38
2022-11-26T00:39:17.030Z,85.49
2022-11-26T00:43:21.765Z,85.55
2022-11-26T00:47:24.811Z,85.76
2022-11-26T00:51:29.240Z,85.90
2022-11-26T00:55:35.642Z,85.99
2022-11-26T00:59:39.965Z,85.99
2022-11-26T01:03:44.065Z,86.08
2022-11-26T01:07:47.696Z,86.32
2022-11-26T01:11:54.297Z,86.55
2022-11-26T01:16:01.077Z,86.63
2022-11-26T01:20:05.629Z,86.67
2022-11-26T01:24:08.901Z,86.60
2022-11-26T01:28:14.184Z,86.67
2022-11-26T01:32:18.546Z,86.61
2022-11-26T01:36:27.536Z,86.47
2022-11-26T01:40:39.967Z,86.49
2022-11-26T01:44:44.032Z,86.47
2022-11-26T01:48:49.836Z,86.36
2022-11-26T01:52:53.854Z,86.44
2022-11-26T01:57:00.545Z,86.36
2022-11-26T02:01:03.580Z,86.50
2022-11-26T02:05:13.618Z,86.12
2022-11-26T02:09:17.319Z,86.09
2022-11-26T02:13:20.695Z,86.12
2022-11-26T02:17:28.596Z,85.83
2022-11-26T02:21:37.212Z,85.98
2022-11-26T02:26:18.200Z,85.82
2022-11-26T02:30:22.593Z,86.07
2022-11-26T02:34:37.006Z,85.88
2022-11-26T02:38:40.836Z,85.85
2022-11-26T02:42:43.841Z,85.70
2022-11-26T02:46:50.950Z,85.50
2022-11-26T02:50:58.027Z,85.49
2022-11-26T02:55:03.185Z,85.70
2022-11-26T02:59:06.588Z,85.69
2022-11-26T03:03:22.919Z,85.60
2022-11-26T03:07:27.503Z,85.65
2022-11-26T03:11:31.001Z,85.56
2022-11-26T03:15:34.041Z,85.82
2022-11-26T03:19:38.546Z,85.71
2022-11-26T03:23:41.719Z,85.77
2022-11-26T03:27:44.869Z,85.77
2022-11-26T03:31:48.089Z,85.54
2022-11-26T03:35:52.488Z,85.77
2022-11-26T03:39:55.541Z,85.44
2022-11-26T03:43:58.507Z,85.25
2022-11-26T03:48:01.775Z,85.13
2022-11-26T03:52:06.711Z,85.65
2022-11-26T03:56:09.708Z,85.38
2022-11-26T04:00:14.615Z,85.39
2022-11-26T04:04:17.907Z,85.36
2022-11-26T04:08:22.904Z,85.57
2022-11-26T04:12:27.295Z,85.44
2022-11-26T04:16:30.407Z,85.45
2022-11-26T04:20:33.424Z,85.16
2022-11-26T04:24:38.107Z,85.47
2022-11-26T04:28:41.472Z,85.30
2022-11-26T04:32:44.472Z,85.23
2022-11-26T04:36:47.637Z,85.12
2022-11-26T04:40:52.055Z,85.15
2022-11-26T04:44:55.069Z,85.02
2022-11-26T04:48:58.079Z,84.96
2022-11-26T04:53:01.347Z,84.81
2022-11-26T04:57:05.927Z,84.92
2022-11-26T05:01:09.267Z,84.97
2022-11-26T05:05:12.718Z,85.00
2022-11-26T05:09:15.884Z,84.93
2022-11-26T05:13:20.239Z,84.72
2022-11-26T05:17:23.229Z,84.51
2022-11-26T05:21:26.211Z,84.21
2022-11-26T05:25:29.230Z,83.93
2022-11-26T05:29:33.665Z,83.96
2022-11-26T05:33:36.656Z,83.67
2022-11-26T05:37:39.703Z,83.83
2022-11-26T05:41:42.928Z,83.46
2022-11-26T05:45:47.273Z,83.41
2022-11-26T05:49:50.303Z,83.25
2022-11-26T05:53:53.160Z,82.90
2022-11-26T05:57:56.074Z,82.60
2022-11-26T06:02:00.545Z,82.64
2022-11-26T06:06:03.963Z,82.71
2022-11-26T06:10:08.430Z,82.63
2022-11-26T06:14:11.490Z,82.62
2022-11-26T06:18:16.332Z,82.21
2022-11-26T06:22:19.504Z,81.91
2022-11-26T06:26:22.421Z,81.83
2022-11-26T06:30:25.340Z,81.76
2022-11-26T06:34:30.073Z,81.49
2022-11-26T06:38:33.456Z,81.27
2022-11-26T06:42:36.534Z,80.86
2022-11-26T06:46:39.433Z,81.29
2022-11-26T06:50:43.692Z,81.25
2022-11-26T06:54:46.539Z,81.18
2022-11-26T06:58:50.696Z,80.93
2022-11-26T07:02:53.874Z,80.68
2022-11-26T07:06:58.276Z,80.42
2022-11-26T07:11:03.616Z,80.34
2022-11-26T07:15:07.395Z,80.50
2022-11-26T07:19:14.352Z,80.35
2022-11-26T07:23:18.721Z,80.54
2022-11-26T07:27:22.023Z,80.44
2022-11-26T07:31:25.375Z,80.47
2022-11-26T07:35:28.564Z,79.97
2022-11-26T07:39:33.050Z,79.83
2022-11-26T07:43:36.439Z,79.74
2022-11-26T07:47:39.360Z,79.69
2022-11-26T07:51:42.565Z,79.97
2022-11-26T07:55:46.841Z,79.91
2022-11-26T07:59:49.951Z,79.91
2022-11-26T08:03:53.194Z,79.96
2022-11-26T08:07:56.236Z,79.81
2022-11-26T08:12:00.751Z,79.95
2022-11-26T08:16:03.973Z,79.93
2022-11-26T08:20:08.300Z,80.04
2022-11-26T08:24:14.839Z,80.35
2022-11-26T08:28:19.150Z,80.74
2022-11-26T08:32:25.301Z,80.46
2022-11-26T08:36:31.659Z,80.90
2022-11-26T08:40:34.716Z,80.43
2022-11-26T08:44:39.567Z,80.37
2022-11-26T08:48:42.958Z,80.23
2022-11-26T08:52:46.090Z,80.08
2022-11-26T08:56:49.038Z,79.78
2022-11-26T09:00:53.339Z,79.91
2022-11-26T09:04:56.331Z,79.79
2022-11-26T09:09:18.014Z,79.62
2022-11-26T09:13:22.586Z,79.77
2022-11-26T09:17:26.860Z,79.52
2022-11-26T09:21:29.979Z,79.90
2022-11-26T09:25:33.068Z,79.61
2022-11-26T09:29:36.059Z,79.54
2022-11-26T09:33:40.461Z,79.19
2022-11-26T09:37:46.098Z,78.68
2022-11-26T09:41:58.041Z,78.96
2022-11-26T09:46:02.074Z,78.68
2022-11-26T09:50:17.787Z,78.04
2022-11-26T09:54:23.541Z,77.76
2022-11-26T09:58:31.319Z,77.80
2022-11-26T10:02:35.088Z,77.83
2022-11-26T10:06:51.407Z,77.44
2022-11-26T10:11:03.778Z,77.96
2022-11-26T10:15:17.625Z,77.88
2022-11-26T10:19:27.914Z,77.65
2022-11-26T10:23:39.025Z,77.70
2022-11-26T10:27:42.383Z,77.36
2022-11-26T10:31:47.742Z,77.17
2022-11-26T10:35:51.645Z,77.19
2022-11-26T10:40:02.005Z,76.72
2022-11-26T10:44:30.225Z,76.24
2022-11-26T10:48:34.661Z,75.83
2022-11-26T10:52:39.664Z,75.71
2022-11-26T10:56:47.557Z,75.48
2022-11-26T11:00:57.867Z,75.08
2022-11-26T11:05:04.105Z,75.13
2022-11-26T11:09:25.746Z,75.44
2022-11-26T11:13:42.364Z,75.00
2022-11-26T11:17:46.484Z,75.17
2022-11-26T11:21:49.678Z,75.35
2022-11-26T11:26:01.406Z,75.36
2022-11-26T11:30:07.097Z,75.27
2022-11-26T11:34:14.818Z,74.82
2022-11-26T11:38:23.809Z,74.66
2022-11-26T11:42:29.472Z,74.64
2022-11-26T11:46:55.861Z,74.76
2022-11-26T11:51:08.232Z,74.07
2022-11-26T11:55:22.889Z,74.44
2022-11-26T11:59:58.410Z,74.21
2022-11-26T12:04:20.876Z,74.13
2022-11-26T12:08:37.370Z,74.10
2022-11-26T12:12:44.530Z,73.77
2022-11-26T12:16:53.735Z,73.85
2022-11-26T12:21:02.938Z,73.49
2022-11-26T12:25:15.580Z,74.12
2022-11-26T12:29:28.457Z,73.84
2022-11-26T12:33:35.063Z,73.76
2022-11-26T12:37:42.600Z,73.57
2022-11-26T12:41:51.488Z,73.57
2022-11-26T12:45:59.547Z,73.86
2022-11-26T12:50:16.530Z,73.21
2022-11-26T12:54:25.916Z,73.06
2022-11-26T12:58:38.624Z,73.45
2022-11-26T13:02:44.519Z,73.74
2022-11-26T13:07:03.952Z,73.90
2022-11-26T13:11:21.646Z,74.31
2022-11-26T13:15:33.307Z,74.44
2022-11-26T13:19:41.958Z,74.51
2022-11-26T13:23:57.771Z,75.61
2022-11-26T13:28:15.255Z,75.20
2022-11-26T13:32:43.687Z,74.17
2022-11-26T13:37:14.198Z,74.22
2022-11-26T13:41:30.223Z,74.07
2022-11-26T13:46:05.726Z,74.13
2022-11-26T13:50:14.484Z,74.07
2022-11-26T13:54:22.989Z,73.94
2022-11-26T13:58:31.572Z,73.75
2022-11-26T14:02:44.328Z,73.27
2022-11-26T14:07:21.991Z,73.03
2022-11-26T14:11:56.871Z,73.08
2022-11-26T14:16:02.479Z,72.75
2022-11-26T14:20:10.083Z,71.81
2022-11-26T14:24:33.073Z,71.91
2022-11-26T14:28:36.096Z,71.66
2022-11-26T14:32:42.829Z,71.32
2022-11-26T14:36:56.093Z,71.26
2022-11-26T14:41:00.426Z,71.54
2022-11-26T14:45:05.620Z,71.32
2022-11-26T14:49:21.272Z,71.66
2022-11-26T14:53:29.333Z,71.39
2022-11-26T14:57:42.233Z,71.47
2022-11-26T15:01:46.913Z,71.32
2022-11-26T15:05:49.966Z,71.37
2022-11-26T15:10:03.806Z,71.46
2022-11-26T15:14:06.848Z,71.50
2022-11-26T15:18:16.248Z,71.33
2022-11-26T15:22:23.124Z,71.71
2022-11-26T15:26:33.199Z,71.62
2022-11-26T15:30:38.160Z,71.83
2022-11-26T15:34:42.204Z,71.90
2022-11-26T15:39:03.061Z,71.94
2022-11-26T15:43:07.640Z,72.16
2022-11-26T15:47:20.614Z,72.14
2022-11-26T15:51:33.779Z,72.47
2022-11-26T15:55:38.962Z,72.63
2022-11-26T15:59:48.980Z,73.05
2022-11-26T16:03:53.762Z,73.14
2022-11-26T16:07:58.198Z,72.98
2022-11-26T16:12:02.302Z,73.28
2022-11-26T16:16:14.640Z,73.49
2022-11-26T16:20:20.244Z,73.41
2022-11-26T16:24:29.508Z,73.64
2022-11-26T16:28:32.565Z,73.58
2022-11-26T16:32:36.928Z,74.00
2022-11-26T16:36:44.190Z,73.96
2022-11-26T16:40:47.216Z,73.69
2022-11-26T16:44:50.822Z,73.96
2022-11-26T16:48:55.386Z,74.56
2022-11-26T16:52:58.391Z,74.23
2022-11-26T16:57:02.075Z,74.57
2022-11-26T17:01:05.081Z,74.78
2022-11-26T17:05:09.916Z,74.62
2022-11-26T17:09:18.725Z,74.97
2022-11-26T17:13:21.886Z,74.75
2022-11-26T17:17:29.315Z,74.61
2022-11-26T17:21:33.887Z,74.77
2022-11-26T17:25:36.872Z,74.76
2022-11-26T17:29:42.795Z,74.91
2022-11-26T17:33:46.165Z,75.11
2022-11-26T17:37:50.788Z,75.26
2022-11-26T17:41:54.185Z,75.38
2022-11-26T17:45:59.321Z,75.54
2022-11-26T17:50:02.375Z,75.31
2022-11-26T17:54:07.060Z,75.41
2022-11-26T17:58:12.386Z,75.79
2022-11-26T18:02:15.686Z,75.79
2022-11-26T18:06:21.378Z,75.73
2022-11-26T18:10:25.907Z,76.07
2022-11-26T18:14:29.219Z,76.09
2022-11-26T18:18:32.219Z,76.10
2022-11-26T18:22:35.179Z,76.11
2022-11-26T18:26:41.175Z,76.42
2022-11-26T18:30:44.676Z,76.37
2022-11-26T18:34:50.070Z,76.27
2022-11-26T18:38:53.330Z,76.69
2022-11-26T18:42:57.894Z,76.49
2022-11-26T18:47:04.344Z,76.68
2022-11-26T18:51:10.432Z,76.85
2022-11-26T18:55:14.908Z,76.86
2022-11-26T18:59:19.267Z,77.17
2022-11-26T19:03:22.305Z,77.35
2022-11-26T19:07:25.354Z,77.68
2022-11-26T19:11:29.263Z,77.65
2022-11-26T19:15:34.547Z,77.61
2022-11-26T19:19:39.416Z,77.99
2022-11-26T19:23:42.912Z,77.92
2022-11-26T19:27:45.880Z,78.07
2022-11-26T19:31:50.469Z,77.91
2022-11-26T19:35:53.470Z,78.00
2022-11-26T19:39:56.783Z,78.08
2022-11-26T19:44:01.410Z,77.85
2022-11-26T19:48:05.958Z,77.70
2022-11-26T19:52:08.945Z,78.26
2022-11-26T19:56:16.348Z,77.81
2022-11-26T20:00:19.734Z,77.85
2022-11-26T20:04:27.460Z,77.98
2022-11-26T20:08:30.678Z,78.17
2022-11-26T20:12:33.731Z,78.38
2022-11-26T20:16:37.279Z,77.94
2022-11-26T20:20:41.899Z,78.02
2022-11-26T20:24:44.843Z,78.09
2022-11-26T20:28:47.830Z,78.06
2022-11-26T20:32:50.852Z,77.92
2022-11-26T20:36:55.295Z,78.13
2022-11-26T20:40:58.519Z,78.14
2022-11-26T20:45:01.521Z,78.24
2022-11-26T20:49:05.859Z,77.94
2022-11-26T20:53:10.219Z,77.95
2022-11-26T20:57:13.217Z,77.86
2022-11-26T21:01:17.867Z,77.51
2022-11-26T21:05:21.464Z,77.63
2022-11-26T21:09:25.952Z,77.37
2022-11-26T21:13:28.964Z,77.48
2022-11-26T21:17:32.358Z,77.56
2022-11-26T21:21:35.521Z,77.38
2022-11-26T21:25:41.675Z,77.52
2022-11-26T21:29:46.186Z,77.33
2022-11-26T21:33:55.183Z,76.90
2022-11-26T21:37:59.262Z,77.19
2022-11-26T21:42:03.603Z,77.38
2022-11-26T21:46:08.563Z,77.23
2022-11-26T21:50:13.047Z,77.19
2022-11-26T21:54:16.447Z,77.25
2022-11-26T21:58:21.341Z,77.02
2022-11-26T22:02:24.587Z,77.19
2022-11-26T22:06:28.027Z,76.94
2022-11-26T22:10:35.945Z,77.25
2022-11-26T22:14:40.730Z,77.30
2022-11-26T22:18:45.387Z,77.38
2022-11-26T22:22:48.540Z,77.50
2022-11-26T22:26:52.513Z,77.25
2022-11-26T22:30:57.158Z,77.50
2022-11-26T22:35:00.119Z,77.57
2022-11-26T22:39:04.760Z,77.29
2022-11-26T22:43:07.722Z,77.56
2022-11-26T22:47:12.276Z,77.56
2022-11-26T22:51:15.614Z,77.60
2022-11-26T22:55:18.775Z,77.47
2022-11-26T22:59:21.751Z,77.83
2022-11-26T23:03:27.857Z,78.00
2022-11-26T23:07:31.297Z,78.04
2022-11-26T23:11:36.458Z,78.40
2022-11-26T23:15:44.500Z,78.09
2022-11-26T23:19:49.385Z,78.06
2022-11-26T23:23:53.178Z,78.36
2022-11-26T23:27:56.333Z,78.12
2022-11-26T23:31:59.380Z,78.08
2022-11-26T23:36:04.428Z,78.56
2022-11-26T23:40:09.214Z,78.58
2022-11-26T23:44:12.205Z,78.67
2022-11-26T23:48:15.204Z,78.72
2022-11-26T23:52:19.580Z,79.02
2022-11-26T23:56:25.042Z,78.71
